sensor_id;sensor_type;location;lat;lon;timestamp;temperature;humidity
7512;DHT22;9999;48.780;9.146;2022-08-02T00:00:18;19.90;99.90
7512;DHT22;9999;48.780;9.146;2022-08-02T00:02:45;19.90;99.90
7512;DHT22;9999;48.780;9.146;2022-08-02T00:05:14;19.90;99.90
7512;DHT22;9999;48.780;9.146;2022-08-02T00:07:41;19.60;99.90
7512;DHT22;9999;48.780;9.146;2022-08-02T00:10:10;19.60;99.90
7512;DHT22;9999;48.780;9.146;2022-08-02T00:12:37;19.60;99.90
7512;DHT22;9999;48.780;9.146;2022-08-02T00:15:07;19.60;99.90
7512;DHT22;9999;48.780;9.146;2022-08-02T00:17:34;19.70;99.90
7512;DHT22;9999;48.780;9.146;2022-08-02T00:20:02;19.70;99.90
7512;DHT22;9999;48.780;9.146;2022-08-02T00:22:29;19.50;99.90
7512;DHT22;9999;48.780;9.146;2022-08-02T00:24:56;19.50;99.90
7512;DHT22;9999;48.780;9.146;2022-08-02T00:27:23;19.60;99.90
7512;DHT22;9999;48.780;9.146;2022-08-02T00:29:50;19.50;99.90
7512;DHT22;9999;48.780;9.146;2022-08-02T00:32:18;19.50;99.90
7512;DHT22;9999;48.780;9.146;2022-08-02T00:34:45;19.50;99.90
7512;DHT22;9999;48.780;9.146;2022-08-02T00:37:12;19.50;99.90
7512;DHT22;9999;48.780;9.146;2022-08-02T00:39:39;19.40;99.90
7512;DHT22;9999;48.780;9.146;2022-08-02T00:42:07;19.40;99.90
7512;DHT22;9999;48.780;9.146;2022-08-02T00:44:34;19.30;99.90
7512;DHT22;9999;48.780;9.146;2022-08-02T00:47:01;19.30;99.90
7512;DHT22;9999;48.780;9.146;2022-08-02T00:49:29;19.30;99.90
7512;DHT22;9999;48.780;9.146;2022-08-02T00:51:56;19.30;99.90
7512;DHT22;9999;48.780;9.146;2022-08-02T00:54:23;19.20;99.90
7512;DHT22;9999;48.780;9.146;2022-08-02T00:56:49;19.30;99.90
7512;DHT22;9999;48.780;9.146;2022-08-02T00:59:17;19.20;99.90
7512;DHT22;9999;48.780;9.146;2022-08-02T01:01:44;19.20;99.90
7512;DHT22;9999;48.780;9.146;2022-08-02T01:04:12;19.20;99.90
7512;DHT22;9999;48.780;9.146;2022-08-02T01:06:41;19.10;99.90
7512;DHT22;9999;48.780;9.146;2022-08-02T01:09:08;19.20;99.90
7512;DHT22;9999;48.780;9.146;2022-08-02T01:11:35;19.20;99.90
7512;DHT22;9999;48.780;9.146;2022-08-02T01:14:06;19.10;99.90
7512;DHT22;9999;48.780;9.146;2022-08-02T01:16:38;19.10;99.90
7512;DHT22;9999;48.780;9.146;2022-08-02T01:19:14;19.10;99.90
7512;DHT22;9999;48.780;9.146;2022-08-02T01:22:04;19.10;99.90
7512;DHT22;9999;48.780;9.146;2022-08-02T01:24:52;19.00;99.90
7512;DHT22;9999;48.780;9.146;2022-08-02T01:27:32;19.00;99.90
7512;DHT22;9999;48.780;9.146;2022-08-02T01:30:04;19.00;99.90
7512;DHT22;9999;48.780;9.146;2022-08-02T01:32:36;19.00;99.90
7512;DHT22;9999;48.780;9.146;2022-08-02T01:35:08;18.90;99.90
7512;DHT22;9999;48.780;9.146;2022-08-02T01:37:40;18.80;99.90
7512;DHT22;9999;48.780;9.146;2022-08-02T01:40:11;18.80;99.90
7512;DHT22;9999;48.780;9.146;2022-08-02T01:42:41;18.80;99.90
7512;DHT22;9999;48.780;9.146;2022-08-02T01:45:11;18.80;99.90
7512;DHT22;9999;48.780;9.146;2022-08-02T01:47:40;18.80;99.90
7512;DHT22;9999;48.780;9.146;2022-08-02T01:50:10;18.80;99.90
7512;DHT22;9999;48.780;9.146;2022-08-02T01:52:41;18.80;99.90
7512;DHT22;9999;48.780;9.146;2022-08-02T01:55:13;18.80;99.90
7512;DHT22;9999;48.780;9.146;2022-08-02T01:57:45;18.90;99.90
7512;DHT22;9999;48.780;9.146;2022-08-02T02:00:15;18.90;99.90
7512;DHT22;9999;48.780;9.146;2022-08-02T02:02:44;18.90;99.90
7512;DHT22;9999;48.780;9.146;2022-08-02T02:05:14;18.90;99.90
7512;DHT22;9999;48.780;9.146;2022-08-02T02:07:43;18.90;99.90
7512;DHT22;9999;48.780;9.146;2022-08-02T02:10:13;18.80;99.90
7512;DHT22;9999;48.780;9.146;2022-08-02T02:12:42;18.90;99.90
7512;DHT22;9999;48.780;9.146;2022-08-02T02:15:11;18.80;99.90
7512;DHT22;9999;48.780;9.146;2022-08-02T02:17:42;18.70;99.90
7512;DHT22;9999;48.780;9.146;2022-08-02T02:20:12;18.70;99.90
7512;DHT22;9999;48.780;9.146;2022-08-02T02:22:40;18.60;99.90
7512;DHT22;9999;48.780;9.146;2022-08-02T02:25:08;18.60;99.90
7512;DHT22;9999;48.780;9.146;2022-08-02T02:27:35;18.50;99.90
7512;DHT22;9999;48.780;9.146;2022-08-02T02:30:03;18.50;99.90
7512;DHT22;9999;48.780;9.146;2022-08-02T02:32:31;18.60;99.90
7512;DHT22;9999;48.780;9.146;2022-08-02T02:35:01;18.60;99.90
7512;DHT22;9999;48.780;9.146;2022-08-02T02:37:29;18.60;99.90
7512;DHT22;9999;48.780;9.146;2022-08-02T02:39:58;18.60;99.90
7512;DHT22;9999;48.780;9.146;2022-08-02T02:42:27;18.60;99.90
7512;DHT22;9999;48.780;9.146;2022-08-02T02:44:56;18.60;99.90
7512;DHT22;9999;48.780;9.146;2022-08-02T02:47:23;18.60;99.90
7512;DHT22;9999;48.780;9.146;2022-08-02T02:49:50;18.60;99.90
7512;DHT22;9999;48.780;9.146;2022-08-02T02:52:19;18.50;99.90
7512;DHT22;9999;48.780;9.146;2022-08-02T02:54:47;18.50;99.90
7512;DHT22;9999;48.780;9.146;2022-08-02T02:57:15;18.60;99.90
7512;DHT22;9999;48.780;9.146;2022-08-02T02:59:43;18.70;99.90
7512;DHT22;9999;48.780;9.146;2022-08-02T03:02:10;18.60;99.90
7512;DHT22;9999;48.780;9.146;2022-08-02T03:04:39;18.70;99.90
7512;DHT22;9999;48.780;9.146;2022-08-02T03:07:07;18.70;99.90
7512;DHT22;9999;48.780;9.146;2022-08-02T03:09:36;18.70;99.90
7512;DHT22;9999;48.780;9.146;2022-08-02T03:12:03;18.70;99.90
7512;DHT22;9999;48.780;9.146;2022-08-02T03:14:31;18.70;99.90
7512;DHT22;9999;48.780;9.146;2022-08-02T03:16:57;18.70;99.90
7512;DHT22;9999;48.780;9.146;2022-08-02T03:19:25;18.70;99.90
7512;DHT22;9999;48.780;9.146;2022-08-02T03:21:52;18.80;99.90
7512;DHT22;9999;48.780;9.146;2022-08-02T03:24:19;18.70;99.90
7512;DHT22;9999;48.780;9.146;2022-08-02T03:26:47;18.70;99.90
7512;DHT22;9999;48.780;9.146;2022-08-02T03:29:13;18.60;99.90
7512;DHT22;9999;48.780;9.146;2022-08-02T03:31:42;18.60;99.90
7512;DHT22;9999;48.780;9.146;2022-08-02T03:34:11;18.60;99.90
7512;DHT22;9999;48.780;9.146;2022-08-02T03:36:39;18.60;99.90
7512;DHT22;9999;48.780;9.146;2022-08-02T03:39:07;18.60;99.90
7512;DHT22;9999;48.780;9.146;2022-08-02T03:41:36;18.60;99.90
7512;DHT22;9999;48.780;9.146;2022-08-02T03:44:06;18.60;99.90
7512;DHT22;9999;48.780;9.146;2022-08-02T03:46:34;18.60;99.90
7512;DHT22;9999;48.780;9.146;2022-08-02T03:49:04;18.50;99.90
7512;DHT22;9999;48.780;9.146;2022-08-02T03:51:32;18.60;99.90
7512;DHT22;9999;48.780;9.146;2022-08-02T03:54:00;18.50;99.90
7512;DHT22;9999;48.780;9.146;2022-08-02T03:56:27;18.60;99.90
7512;DHT22;9999;48.780;9.146;2022-08-02T03:59:06;18.50;99.90
7512;DHT22;9999;48.780;9.146;2022-08-02T04:01:33;18.40;99.90
7512;DHT22;9999;48.780;9.146;2022-08-02T04:04:00;18.40;99.90
7512;DHT22;9999;48.780;9.146;2022-08-02T04:06:26;18.30;99.90
7512;DHT22;9999;48.780;9.146;2022-08-02T04:08:53;18.30;99.90
7512;DHT22;9999;48.780;9.146;2022-08-02T04:11:20;18.30;99.90
7512;DHT22;9999;48.780;9.146;2022-08-02T04:14:00;18.30;99.90
7512;DHT22;9999;48.780;9.146;2022-08-02T04:16:39;18.30;99.90
7512;DHT22;9999;48.780;9.146;2022-08-02T04:19:09;18.20;99.90
7512;DHT22;9999;48.780;9.146;2022-08-02T04:21:39;18.30;99.90
7512;DHT22;9999;48.780;9.146;2022-08-02T04:24:08;18.30;99.90
7512;DHT22;9999;48.780;9.146;2022-08-02T04:26:35;18.30;99.90
7512;DHT22;9999;48.780;9.146;2022-08-02T04:29:03;18.30;99.90
7512;DHT22;9999;48.780;9.146;2022-08-02T04:31:31;18.30;99.90
7512;DHT22;9999;48.780;9.146;2022-08-02T04:33:59;18.30;99.90
7512;DHT22;9999;48.780;9.146;2022-08-02T04:36:26;18.30;99.90
7512;DHT22;9999;48.780;9.146;2022-08-02T04:38:53;18.20;99.90
7512;DHT22;9999;48.780;9.146;2022-08-02T04:41:20;18.30;99.90
7512;DHT22;9999;48.780;9.146;2022-08-02T04:43:47;18.30;99.90
7512;DHT22;9999;48.780;9.146;2022-08-02T04:46:13;18.30;99.90
7512;DHT22;9999;48.780;9.146;2022-08-02T04:48:40;18.30;99.90
7512;DHT22;9999;48.780;9.146;2022-08-02T04:51:08;18.40;99.90
7512;DHT22;9999;48.780;9.146;2022-08-02T04:53:35;18.30;99.90
7512;DHT22;9999;48.780;9.146;2022-08-02T04:56:02;18.30;99.90
7512;DHT22;9999;48.780;9.146;2022-08-02T04:58:29;18.30;99.90
7512;DHT22;9999;48.780;9.146;2022-08-02T05:00:56;18.30;99.90
7512;DHT22;9999;48.780;9.146;2022-08-02T05:03:22;18.40;99.90
7512;DHT22;9999;48.780;9.146;2022-08-02T05:05:49;18.40;99.90
7512;DHT22;9999;48.780;9.146;2022-08-02T05:08:17;18.50;99.90
7512;DHT22;9999;48.780;9.146;2022-08-02T05:10:44;18.50;99.90
7512;DHT22;9999;48.780;9.146;2022-08-02T05:13:11;18.50;99.90
7512;DHT22;9999;48.780;9.146;2022-08-02T05:15:37;18.60;99.90
7512;DHT22;9999;48.780;9.146;2022-08-02T05:18:04;18.50;99.90
7512;DHT22;9999;48.780;9.146;2022-08-02T05:20:31;18.60;99.90
7512;DHT22;9999;48.780;9.146;2022-08-02T05:22:58;18.60;99.90
7512;DHT22;9999;48.780;9.146;2022-08-02T05:25:26;18.60;99.90
7512;DHT22;9999;48.780;9.146;2022-08-02T05:27:53;18.70;99.90
7512;DHT22;9999;48.780;9.146;2022-08-02T05:30:20;18.70;99.90
7512;DHT22;9999;48.780;9.146;2022-08-02T05:32:48;18.80;99.90
7512;DHT22;9999;48.780;9.146;2022-08-02T05:35:17;18.80;99.90
7512;DHT22;9999;48.780;9.146;2022-08-02T05:37:44;18.70;99.90
7512;DHT22;9999;48.780;9.146;2022-08-02T05:40:11;18.80;99.90
7512;DHT22;9999;48.780;9.146;2022-08-02T05:42:39;18.80;99.90
7512;DHT22;9999;48.780;9.146;2022-08-02T05:45:07;18.80;99.90
7512;DHT22;9999;48.780;9.146;2022-08-02T05:47:34;18.90;99.90
7512;DHT22;9999;48.780;9.146;2022-08-02T05:50:01;19.00;99.90
7512;DHT22;9999;48.780;9.146;2022-08-02T05:52:44;19.00;99.90
7512;DHT22;9999;48.780;9.146;2022-08-02T05:55:15;19.00;99.90
7512;DHT22;9999;48.780;9.146;2022-08-02T05:57:50;19.10;99.90
7512;DHT22;9999;48.780;9.146;2022-08-02T06:00:19;19.10;99.90
7512;DHT22;9999;48.780;9.146;2022-08-02T06:03:04;19.20;99.90
7512;DHT22;9999;48.780;9.146;2022-08-02T06:05:48;19.20;99.90
7512;DHT22;9999;48.780;9.146;2022-08-02T06:08:15;19.30;99.90
7512;DHT22;9999;48.780;9.146;2022-08-02T06:10:42;19.30;99.90
7512;DHT22;9999;48.780;9.146;2022-08-02T06:13:14;19.30;99.90
7512;DHT22;9999;48.780;9.146;2022-08-02T06:15:41;19.30;99.90
7512;DHT22;9999;48.780;9.146;2022-08-02T06:18:08;19.50;99.90
7512;DHT22;9999;48.780;9.146;2022-08-02T06:20:36;19.50;99.90
7512;DHT22;9999;48.780;9.146;2022-08-02T06:23:03;19.50;99.90
7512;DHT22;9999;48.780;9.146;2022-08-02T06:25:32;19.60;99.90
7512;DHT22;9999;48.780;9.146;2022-08-02T06:28:00;19.70;99.90
7512;DHT22;9999;48.780;9.146;2022-08-02T06:30:29;19.80;99.90
7512;DHT22;9999;48.780;9.146;2022-08-02T06:32:57;20.00;99.90
7512;DHT22;9999;48.780;9.146;2022-08-02T06:35:25;20.10;99.90
7512;DHT22;9999;48.780;9.146;2022-08-02T06:37:58;20.20;99.90
7512;DHT22;9999;48.780;9.146;2022-08-02T06:40:28;20.30;99.90
7512;DHT22;9999;48.780;9.146;2022-08-02T06:43:05;20.50;99.90
7512;DHT22;9999;48.780;9.146;2022-08-02T06:45:34;20.60;99.90
7512;DHT22;9999;48.780;9.146;2022-08-02T06:48:01;20.70;99.90
7512;DHT22;9999;48.780;9.146;2022-08-02T06:50:29;20.90;99.90
7512;DHT22;9999;48.780;9.146;2022-08-02T06:52:56;21.00;99.90
7512;DHT22;9999;48.780;9.146;2022-08-02T06:55:22;21.10;99.90
7512;DHT22;9999;48.780;9.146;2022-08-02T06:57:49;21.20;99.90
7512;DHT22;9999;48.780;9.146;2022-08-02T07:00:16;21.40;99.90
7512;DHT22;9999;48.780;9.146;2022-08-02T07:02:44;21.50;99.90
7512;DHT22;9999;48.780;9.146;2022-08-02T07:05:11;21.60;99.90
7512;DHT22;9999;48.780;9.146;2022-08-02T07:07:38;21.80;99.90
7512;DHT22;9999;48.780;9.146;2022-08-02T07:10:05;21.90;99.90
7512;DHT22;9999;48.780;9.146;2022-08-02T07:12:33;22.20;99.90
7512;DHT22;9999;48.780;9.146;2022-08-02T07:15:02;22.40;99.90
7512;DHT22;9999;48.780;9.146;2022-08-02T07:17:29;22.50;99.90
7512;DHT22;9999;48.780;9.146;2022-08-02T07:19:58;22.70;99.90
7512;DHT22;9999;48.780;9.146;2022-08-02T07:22:25;22.90;99.90
7512;DHT22;9999;48.780;9.146;2022-08-02T07:24:53;23.10;99.90
7512;DHT22;9999;48.780;9.146;2022-08-02T07:27:20;23.50;99.90
7512;DHT22;9999;48.780;9.146;2022-08-02T07:29:47;23.90;99.90
7512;DHT22;9999;48.780;9.146;2022-08-02T07:32:15;24.20;99.90
7512;DHT22;9999;48.780;9.146;2022-08-02T07:34:42;24.40;99.90
7512;DHT22;9999;48.780;9.146;2022-08-02T07:37:10;24.60;99.90
7512;DHT22;9999;48.780;9.146;2022-08-02T07:39:36;24.50;99.90
7512;DHT22;9999;48.780;9.146;2022-08-02T07:42:03;24.40;99.90
7512;DHT22;9999;48.780;9.146;2022-08-02T07:44:30;24.60;99.90
7512;DHT22;9999;48.780;9.146;2022-08-02T07:46:59;24.80;99.90
7512;DHT22;9999;48.780;9.146;2022-08-02T07:49:26;24.90;99.90
7512;DHT22;9999;48.780;9.146;2022-08-02T07:51:53;25.00;99.90
7512;DHT22;9999;48.780;9.146;2022-08-02T07:54:22;25.10;99.90
7512;DHT22;9999;48.780;9.146;2022-08-02T07:56:49;25.20;99.90
7512;DHT22;9999;48.780;9.146;2022-08-02T07:59:17;25.20;99.90
7512;DHT22;9999;48.780;9.146;2022-08-02T08:01:44;25.10;99.90
7512;DHT22;9999;48.780;9.146;2022-08-02T08:04:11;25.10;99.90
7512;DHT22;9999;48.780;9.146;2022-08-02T08:06:38;25.20;99.90
7512;DHT22;9999;48.780;9.146;2022-08-02T08:09:04;25.70;99.90
7512;DHT22;9999;48.780;9.146;2022-08-02T08:11:32;25.60;99.90
7512;DHT22;9999;48.780;9.146;2022-08-02T08:13:59;25.90;99.90
7512;DHT22;9999;48.780;9.146;2022-08-02T08:16:26;26.00;99.90
7512;DHT22;9999;48.780;9.146;2022-08-02T08:18:53;26.20;99.90
7512;DHT22;9999;48.780;9.146;2022-08-02T08:21:20;26.30;99.90
7512;DHT22;9999;48.780;9.146;2022-08-02T08:23:47;26.40;99.90
7512;DHT22;9999;48.780;9.146;2022-08-02T08:26:14;26.70;99.90
7512;DHT22;9999;48.780;9.146;2022-08-02T08:28:42;26.90;99.90
7512;DHT22;9999;48.780;9.146;2022-08-02T08:31:08;26.90;99.90
7512;DHT22;9999;48.780;9.146;2022-08-02T08:33:39;26.70;99.90
7512;DHT22;9999;48.780;9.146;2022-08-02T08:36:06;26.50;99.90
7512;DHT22;9999;48.780;9.146;2022-08-02T08:38:33;26.60;99.90
7512;DHT22;9999;48.780;9.146;2022-08-02T08:41:00;26.50;99.90
7512;DHT22;9999;48.780;9.146;2022-08-02T08:43:27;26.60;99.90
7512;DHT22;9999;48.780;9.146;2022-08-02T08:45:55;26.50;99.90
7512;DHT22;9999;48.780;9.146;2022-08-02T08:48:23;26.80;99.90
7512;DHT22;9999;48.780;9.146;2022-08-02T08:50:53;26.70;99.90
7512;DHT22;9999;48.780;9.146;2022-08-02T08:53:23;27.10;99.90
7512;DHT22;9999;48.780;9.146;2022-08-02T08:55:52;27.50;99.90
7512;DHT22;9999;48.780;9.146;2022-08-02T08:58:21;27.60;99.90
7512;DHT22;9999;48.780;9.146;2022-08-02T09:00:48;27.40;99.90
7512;DHT22;9999;48.780;9.146;2022-08-02T09:03:16;27.20;99.90
7512;DHT22;9999;48.780;9.146;2022-08-02T09:05:43;27.30;99.90
7512;DHT22;9999;48.780;9.146;2022-08-02T09:08:11;27.40;99.90
7512;DHT22;9999;48.780;9.146;2022-08-02T09:10:40;27.70;99.90
7512;DHT22;9999;48.780;9.146;2022-08-02T09:13:13;27.80;99.90
7512;DHT22;9999;48.780;9.146;2022-08-02T09:15:42;27.90;99.90
7512;DHT22;9999;48.780;9.146;2022-08-02T09:18:09;27.90;99.90
7512;DHT22;9999;48.780;9.146;2022-08-02T09:20:53;27.80;99.90
7512;DHT22;9999;48.780;9.146;2022-08-02T09:23:22;27.90;99.90
7512;DHT22;9999;48.780;9.146;2022-08-02T09:26:00;27.90;99.90
7512;DHT22;9999;48.780;9.146;2022-08-02T09:28:29;28.00;99.90
7512;DHT22;9999;48.780;9.146;2022-08-02T09:31:01;28.00;99.90
7512;DHT22;9999;48.780;9.146;2022-08-02T09:33:29;28.10;99.90
7512;DHT22;9999;48.780;9.146;2022-08-02T09:36:02;27.90;99.90
7512;DHT22;9999;48.780;9.146;2022-08-02T09:38:29;28.20;99.90
7512;DHT22;9999;48.780;9.146;2022-08-02T09:40:57;28.30;99.90
7512;DHT22;9999;48.780;9.146;2022-08-02T09:43:34;28.30;99.90
7512;DHT22;9999;48.780;9.146;2022-08-02T09:46:12;28.30;99.90
7512;DHT22;9999;48.780;9.146;2022-08-02T09:48:47;28.30;99.90
7512;DHT22;9999;48.780;9.146;2022-08-02T09:51:18;28.30;99.90
7512;DHT22;9999;48.780;9.146;2022-08-02T09:53:51;28.40;99.90
7512;DHT22;9999;48.780;9.146;2022-08-02T09:56:18;28.50;98.50
7512;DHT22;9999;48.780;9.146;2022-08-02T09:58:45;28.70;98.50
7512;DHT22;9999;48.780;9.146;2022-08-02T10:01:13;28.50;99.20
7512;DHT22;9999;48.780;9.146;2022-08-02T10:03:53;28.60;99.10
7512;DHT22;9999;48.780;9.146;2022-08-02T10:06:22;28.90;97.20
7512;DHT22;9999;48.780;9.146;2022-08-02T10:08:50;28.90;97.30
7512;DHT22;9999;48.780;9.146;2022-08-02T10:11:18;28.80;96.10
7512;DHT22;9999;48.780;9.146;2022-08-02T10:13:46;28.80;96.00
7512;DHT22;9999;48.780;9.146;2022-08-02T10:16:14;28.90;96.90
7512;DHT22;9999;48.780;9.146;2022-08-02T10:18:42;29.10;95.20
7512;DHT22;9999;48.780;9.146;2022-08-02T10:21:13;29.00;93.70
7512;DHT22;9999;48.780;9.146;2022-08-02T10:23:44;28.90;95.90
7512;DHT22;9999;48.780;9.146;2022-08-02T10:26:16;28.90;93.40
7512;DHT22;9999;48.780;9.146;2022-08-02T10:28:45;29.00;94.20
7512;DHT22;9999;48.780;9.146;2022-08-02T10:31:14;29.00;93.80
7512;DHT22;9999;48.780;9.146;2022-08-02T10:33:42;29.20;93.80
7512;DHT22;9999;48.780;9.146;2022-08-02T10:36:10;29.20;93.00
7512;DHT22;9999;48.780;9.146;2022-08-02T10:38:39;29.20;93.00
7512;DHT22;9999;48.780;9.146;2022-08-02T10:41:07;29.30;94.40
7512;DHT22;9999;48.780;9.146;2022-08-02T10:43:43;29.10;93.40
7512;DHT22;9999;48.780;9.146;2022-08-02T10:49:10;28.30;94.10
7512;DHT22;9999;48.780;9.146;2022-08-02T10:51:55;27.90;93.70
7512;DHT22;9999;48.780;9.146;2022-08-02T10:54:23;27.40;95.00
7512;DHT22;9999;48.780;9.146;2022-08-02T10:56:53;27.30;95.70
7512;DHT22;9999;48.780;9.146;2022-08-02T10:59:25;27.30;95.70
7512;DHT22;9999;48.780;9.146;2022-08-02T11:01:53;27.30;95.40
7512;DHT22;9999;48.780;9.146;2022-08-02T11:04:28;27.50;94.50
7512;DHT22;9999;48.780;9.146;2022-08-02T11:07:06;27.60;94.90
7512;DHT22;9999;48.780;9.146;2022-08-02T11:09:33;27.50;94.90
7512;DHT22;9999;48.780;9.146;2022-08-02T11:12:03;27.50;95.80
7512;DHT22;9999;48.780;9.146;2022-08-02T11:14:32;27.20;96.50
7512;DHT22;9999;48.780;9.146;2022-08-02T11:17:07;27.20;96.10
7512;DHT22;9999;48.780;9.146;2022-08-02T11:20:14;27.20;96.70
7512;DHT22;9999;48.780;9.146;2022-08-02T11:22:43;27.60;96.90
7512;DHT22;9999;48.780;9.146;2022-08-02T11:25:29;28.00;93.70
7512;DHT22;9999;48.780;9.146;2022-08-02T11:28:06;28.10;93.70
7512;DHT22;9999;48.780;9.146;2022-08-02T11:30:34;28.50;92.80
7512;DHT22;9999;48.780;9.146;2022-08-02T11:33:01;28.50;91.50
7512;DHT22;9999;48.780;9.146;2022-08-02T11:35:32;28.70;93.70
7512;DHT22;9999;48.780;9.146;2022-08-02T11:38:12;28.90;91.80
7512;DHT22;9999;48.780;9.146;2022-08-02T11:40:39;29.30;92.30
7512;DHT22;9999;48.780;9.146;2022-08-02T11:43:20;29.50;91.20
7512;DHT22;9999;48.780;9.146;2022-08-02T11:45:48;29.80;91.80
7512;DHT22;9999;48.780;9.146;2022-08-02T11:48:29;29.50;90.50
7512;DHT22;9999;48.780;9.146;2022-08-02T11:51:07;28.90;88.60
7512;DHT22;9999;48.780;9.146;2022-08-02T11:53:45;28.50;90.60
7512;DHT22;9999;48.780;9.146;2022-08-02T11:56:13;28.50;90.30
7512;DHT22;9999;48.780;9.146;2022-08-02T11:58:59;28.80;89.40
7512;DHT22;9999;48.780;9.146;2022-08-02T12:01:27;29.00;90.10
7512;DHT22;9999;48.780;9.146;2022-08-02T12:03:55;29.10;90.90
7512;DHT22;9999;48.780;9.146;2022-08-02T12:06:25;28.80;89.40
7512;DHT22;9999;48.780;9.146;2022-08-02T12:08:58;28.50;90.60
7512;DHT22;9999;48.780;9.146;2022-08-02T12:11:25;28.30;89.10
7512;DHT22;9999;48.780;9.146;2022-08-02T12:13:53;28.30;91.20
7512;DHT22;9999;48.780;9.146;2022-08-02T12:16:22;28.40;90.40
7512;DHT22;9999;48.780;9.146;2022-08-02T12:19:06;28.30;89.80
7512;DHT22;9999;48.780;9.146;2022-08-02T12:21:53;28.40;89.00
7512;DHT22;9999;48.780;9.146;2022-08-02T12:24:31;28.40;90.00
7512;DHT22;9999;48.780;9.146;2022-08-02T12:26:58;28.40;91.40
7512;DHT22;9999;48.780;9.146;2022-08-02T12:29:31;28.30;91.20
7512;DHT22;9999;48.780;9.146;2022-08-02T12:31:58;28.10;90.70
7512;DHT22;9999;48.780;9.146;2022-08-02T12:34:26;28.00;90.50
7512;DHT22;9999;48.780;9.146;2022-08-02T12:37:01;27.90;89.90
7512;DHT22;9999;48.780;9.146;2022-08-02T12:39:37;27.80;91.90
7512;DHT22;9999;48.780;9.146;2022-08-02T12:42:06;27.80;89.00
7512;DHT22;9999;48.780;9.146;2022-08-02T12:44:35;28.00;90.50
7512;DHT22;9999;48.780;9.146;2022-08-02T12:47:05;28.40;89.70
7512;DHT22;9999;48.780;9.146;2022-08-02T12:49:32;28.80;89.30
7512;DHT22;9999;48.780;9.146;2022-08-02T12:51:59;29.00;87.80
7512;DHT22;9999;48.780;9.146;2022-08-02T12:54:29;28.90;89.00
7512;DHT22;9999;48.780;9.146;2022-08-02T12:56:57;29.00;88.80
7512;DHT22;9999;48.780;9.146;2022-08-02T12:59:36;29.30;86.30
7512;DHT22;9999;48.780;9.146;2022-08-02T13:02:04;29.70;82.50
7512;DHT22;9999;48.780;9.146;2022-08-02T13:04:32;29.90;82.20
7512;DHT22;9999;48.780;9.146;2022-08-02T13:06:59;30.10;81.10
7512;DHT22;9999;48.780;9.146;2022-08-02T13:09:26;30.20;82.20
7512;DHT22;9999;48.780;9.146;2022-08-02T13:11:53;30.50;81.20
7512;DHT22;9999;48.780;9.146;2022-08-02T13:14:20;30.40;78.30
7512;DHT22;9999;48.780;9.146;2022-08-02T13:16:48;30.50;78.00
7512;DHT22;9999;48.780;9.146;2022-08-02T13:19:16;30.50;77.30
7512;DHT22;9999;48.780;9.146;2022-08-02T13:21:44;30.60;80.00
7512;DHT22;9999;48.780;9.146;2022-08-02T13:24:13;30.80;76.60
7512;DHT22;9999;48.780;9.146;2022-08-02T13:26:41;30.70;77.30
7512;DHT22;9999;48.780;9.146;2022-08-02T13:29:08;30.50;78.40
7512;DHT22;9999;48.780;9.146;2022-08-02T13:31:35;30.40;78.80
7512;DHT22;9999;48.780;9.146;2022-08-02T13:34:04;30.50;76.60
7512;DHT22;9999;48.780;9.146;2022-08-02T13:36:31;30.20;75.80
7512;DHT22;9999;48.780;9.146;2022-08-02T13:38:58;30.00;76.40
7512;DHT22;9999;48.780;9.146;2022-08-02T13:41:25;29.80;78.20
7512;DHT22;9999;48.780;9.146;2022-08-02T13:43:52;29.70;76.80
7512;DHT22;9999;48.780;9.146;2022-08-02T13:46:19;29.70;77.70
7512;DHT22;9999;48.780;9.146;2022-08-02T13:48:46;29.60;78.50
7512;DHT22;9999;48.780;9.146;2022-08-02T13:51:14;29.40;76.80
7512;DHT22;9999;48.780;9.146;2022-08-02T13:53:41;29.40;77.90
7512;DHT22;9999;48.780;9.146;2022-08-02T13:56:07;29.30;78.00
7512;DHT22;9999;48.780;9.146;2022-08-02T13:58:34;29.40;77.90
7512;DHT22;9999;48.780;9.146;2022-08-02T14:01:01;29.50;75.70
7512;DHT22;9999;48.780;9.146;2022-08-02T14:03:27;29.70;75.50
7512;DHT22;9999;48.780;9.146;2022-08-02T14:05:54;29.90;72.60
7512;DHT22;9999;48.780;9.146;2022-08-02T14:08:22;30.20;71.30
7512;DHT22;9999;48.780;9.146;2022-08-02T14:10:50;30.10;71.60
7512;DHT22;9999;48.780;9.146;2022-08-02T14:13:17;29.90;70.20
7512;DHT22;9999;48.780;9.146;2022-08-02T14:15:44;29.80;74.70
7512;DHT22;9999;48.780;9.146;2022-08-02T14:18:11;29.80;70.90
7512;DHT22;9999;48.780;9.146;2022-08-02T14:20:40;29.70;71.70
7512;DHT22;9999;48.780;9.146;2022-08-02T14:23:06;29.70;71.10
7512;DHT22;9999;48.780;9.146;2022-08-02T14:25:35;29.60;71.40
7512;DHT22;9999;48.780;9.146;2022-08-02T14:28:02;29.70;70.20
7512;DHT22;9999;48.780;9.146;2022-08-02T14:30:29;29.50;70.70
7512;DHT22;9999;48.780;9.146;2022-08-02T14:32:55;29.50;71.30
7512;DHT22;9999;48.780;9.146;2022-08-02T14:35:22;29.60;72.30
7512;DHT22;9999;48.780;9.146;2022-08-02T14:37:49;29.70;71.00
7512;DHT22;9999;48.780;9.146;2022-08-02T14:40:16;29.90;72.50
7512;DHT22;9999;48.780;9.146;2022-08-02T14:42:44;30.10;70.80
7512;DHT22;9999;48.780;9.146;2022-08-02T14:45:11;30.20;72.10
7512;DHT22;9999;48.780;9.146;2022-08-02T14:47:38;30.10;71.60
7512;DHT22;9999;48.780;9.146;2022-08-02T14:50:05;30.20;70.40
7512;DHT22;9999;48.780;9.146;2022-08-02T14:52:32;30.20;68.90
7512;DHT22;9999;48.780;9.146;2022-08-02T14:54:59;29.90;71.30
7512;DHT22;9999;48.780;9.146;2022-08-02T14:57:27;29.70;73.50
7512;DHT22;9999;48.780;9.146;2022-08-02T14:59:55;29.50;71.30
7512;DHT22;9999;48.780;9.146;2022-08-02T15:02:25;29.60;72.20
7512;DHT22;9999;48.780;9.146;2022-08-02T15:04:51;29.60;74.30
7512;DHT22;9999;48.780;9.146;2022-08-02T15:07:18;29.50;72.50
7512;DHT22;9999;48.780;9.146;2022-08-02T15:09:45;29.30;70.10
7512;DHT22;9999;48.780;9.146;2022-08-02T15:12:12;29.20;71.30
7512;DHT22;9999;48.780;9.146;2022-08-02T15:14:39;29.40;74.20
7512;DHT22;9999;48.780;9.146;2022-08-02T15:17:08;29.50;72.60
7512;DHT22;9999;48.780;9.146;2022-08-02T15:19:35;29.80;71.50
7512;DHT22;9999;48.780;9.146;2022-08-02T15:22:02;30.00;70.00
7512;DHT22;9999;48.780;9.146;2022-08-02T15:24:29;30.20;69.20
7512;DHT22;9999;48.780;9.146;2022-08-02T15:26:56;30.20;68.90
7512;DHT22;9999;48.780;9.146;2022-08-02T15:29:22;30.20;68.90
7512;DHT22;9999;48.780;9.146;2022-08-02T15:31:49;30.00;68.00
7512;DHT22;9999;48.780;9.146;2022-08-02T15:34:17;30.00;70.30
7512;DHT22;9999;48.780;9.146;2022-08-02T15:36:44;29.90;70.10
7512;DHT22;9999;48.780;9.146;2022-08-02T15:39:11;29.50;67.10
7512;DHT22;9999;48.780;9.146;2022-08-02T15:41:37;29.40;67.80
7512;DHT22;9999;48.780;9.146;2022-08-02T15:44:07;29.40;68.80
7512;DHT22;9999;48.780;9.146;2022-08-02T15:46:35;29.30;68.50
7512;DHT22;9999;48.780;9.146;2022-08-02T15:49:02;29.40;68.00
7512;DHT22;9999;48.780;9.146;2022-08-02T15:51:30;29.50;68.50
7512;DHT22;9999;48.780;9.146;2022-08-02T15:53:57;29.80;69.60
7512;DHT22;9999;48.780;9.146;2022-08-02T15:56:24;29.80;68.40
7512;DHT22;9999;48.780;9.146;2022-08-02T15:58:51;29.80;65.00
7512;DHT22;9999;48.780;9.146;2022-08-02T16:01:18;29.90;67.40
7512;DHT22;9999;48.780;9.146;2022-08-02T16:03:44;29.70;65.80
7512;DHT22;9999;48.780;9.146;2022-08-02T16:06:11;29.70;65.00
7512;DHT22;9999;48.780;9.146;2022-08-02T16:08:41;29.80;68.10
7512;DHT22;9999;48.780;9.146;2022-08-02T16:11:08;29.60;67.90
7512;DHT22;9999;48.780;9.146;2022-08-02T16:13:34;29.50;67.80
7512;DHT22;9999;48.780;9.146;2022-08-02T16:16:18;29.50;69.40